Grande Tema — IBDO — position and weather

sailwx.info

Track history (hours):
 
Tides and Currents Weather Stations Pressure Air Temp Water Temp Dewpoint Dewpoint Depression Visibility Wind Speed Wind Dir Waves Ship Positions

Grande Tema

Last reported at 2017-Nov-16 20:19 UTC. Time now 2017-Nov-20 02:02 UTC.
Position N 05°23' E 000°34'.

Length 236 m; draft 10.1 m.

Type: Ship (hazmat cat A). MMSI: 247341300.

Date/timePositionNaut miles runAvg speedWind from/ knotsBaromVisibWave heightAir tempDewpointWater temp
2017-Nov-16 20:19N 05°23' E 000°34'515.3
2017-Nov-16 20:00N 05°22' E 000°29'815.4
2017-Nov-16 19:30N 05°19' E 000°22'815.3
2017-Nov-16 19:00N 05°17' E 000°15'915.1
2017-Nov-16 18:25N 05°14' E 000°06'615.3
2017-Nov-16 18:00N 05°12' E 000°00'815.3
2017-Nov-16 17:30N 05°10' W 000°07'815.2
2017-Nov-16 16:59N 05°07' W 000°15'  
2017-Nov-11 05:22N 24°44' W 015°52'515.4
2017-Nov-11 05:00N 24°48' W 015°49'815.4
2017-Nov-11 04:30N 24°55' W 015°45'815.3
2017-Nov-11 03:58N 25°03' W 015°41'11015.3
2017-Nov-10 20:49N 26°38' W 014°41'515.4
2017-Nov-10 20:28N 26°43' W 014°37'715.5
2017-Nov-10 20:00N 26°49' W 014°33'815.3
2017-Nov-10 19:30N 26°55' W 014°29'815.3
2017-Nov-10 19:00N 27°02' W 014°25'815.4
2017-Nov-10 18:30N 27°09' W 014°20'815.5
2017-Nov-10 18:00N 27°15' W 014°16'815.1
2017-Nov-10 17:30N 27°22' W 014°11'815.1
2017-Nov-10 17:00N 27°28' W 014°07'815.2
2017-Nov-10 16:30N 27°35' W 014°03'815.4
2017-Nov-10 16:00N 27°42' W 013°58'815.3
2017-Nov-10 15:30N 27°48' W 013°54'815.4
2017-Nov-10 15:00N 27°55' W 013°49'815.3
2017-Nov-10 14:29N 28°02' W 013°45'715.5
2017-Nov-10 14:00N 28°08' W 013°42'1015.3
2017-Nov-10 13:20N 28°18' W 013°37'515.3
2017-Nov-10 12:59N 28°23' W 013°34'815.3
2017-Nov-10 12:28N 28°30' W 013°31'815.5
2017-Nov-10 11:59N 28°37' W 013°27'715.4
2017-Nov-10 11:30N 28°43' W 013°23'815.4
2017-Nov-10 11:00N 28°50' W 013°20'815.5
2017-Nov-10 10:30N 28°57' W 013°16'1015.4
2017-Nov-10 09:50N 29°07' W 013°11'815.2
2017-Nov-10 09:20N 29°14' W 013°08'514.8
2017-Nov-10 08:59N 29°18' W 013°04'714.9
2017-Nov-10 08:30N 29°23' W 012°59'815.1
2017-Nov-10 08:00N 29°29' W 012°53'815.2
2017-Nov-10 07:30N 29°35' W 012°47'815.2
2017-Nov-10 07:00N 29°40' W 012°41'815.1
2017-Nov-10 06:30N 29°46' W 012°36'715.1
2017-Nov-10 06:00N 29°51' W 012°30'815.2
2017-Nov-10 05:30N 29°57' W 012°24'1015.5
2017-Nov-10 04:50N 30°05' W 012°16'1015.3
2017-Nov-10 04:09N 30°13' W 012°08'515.0
2017-Nov-10 03:48N 30°16' W 012°04'414.9
2017-Nov-10 03:30N 30°20' W 012°00'1315.3
2017-Nov-10 02:39N 30°30' W 011°50'215.1
2017-Nov-10 02:30N 30°31' W 011°48'1415.4
2017-Nov-10 01:35N 30°42' W 011°37'1715.3
2017-Nov-10 00:28N 30°54' W 011°24'715.4
2017-Nov-09 23:59N 31°00' W 011°19'815.4
2017-Nov-09 23:27N 31°06' W 011°12'41315.2
2017-Nov-08 20:13N 36°00' W 005°25'23014.9
2017-Nov-08 04:46N 37°18' W 000°55'815.9
2017-Nov-08 04:17N 37°23' W 000°48'415.6
2017-Nov-08 04:00N 37°26' W 000°43'815.6
2017-Nov-08 03:29N 37°32' W 000°36'715.6
2017-Nov-08 03:00N 37°38' W 000°30'815.4
2017-Nov-08 02:30N 37°44' W 000°25'1315.2
2017-Nov-08 01:37N 37°55' W 000°16'515.2
2017-Nov-08 01:18N 37°60' W 000°13'10 0.3
2017-Nov-06 21:25N 37°50' W 000°15'715.3
2017-Nov-06 20:58N 37°45' W 000°21'715.7
2017-Nov-06 20:30N 37°39' W 000°26'  
Track history (hours):
 
Tides and Currents Weather Stations Pressure Air Temp Water Temp Dewpoint Dewpoint Depression Visibility Wind Speed Wind Dir Waves Ship Positions

Grande Tema

Last reported at 2017-Nov-16 20:19 UTC. Time now 2017-Nov-20 02:02 UTC.
Position N 05°23' E 000°34'.

Length 236 m; draft 10.1 m.

Type: Ship (hazmat cat A). MMSI: 247341300.

Date/timePositionNaut miles runAvg speedWind from/ knotsBaromVisibWave heightAir tempDewpointWater temp
2017-Nov-16 20:19N 05°23' E 000°34'515.3
2017-Nov-16 20:00N 05°22' E 000°29'815.4
2017-Nov-16 19:30N 05°19' E 000°22'815.3
2017-Nov-16 19:00N 05°17' E 000°15'915.1
2017-Nov-16 18:25N 05°14' E 000°06'615.3
2017-Nov-16 18:00N 05°12' E 000°00'815.3
2017-Nov-16 17:30N 05°10' W 000°07'815.2
2017-Nov-16 16:59N 05°07' W 000°15'  
2017-Nov-11 05:22N 24°44' W 015°52'515.4
2017-Nov-11 05:00N 24°48' W 015°49'815.4
2017-Nov-11 04:30N 24°55' W 015°45'815.3
2017-Nov-11 03:58N 25°03' W 015°41'11015.3
2017-Nov-10 20:49N 26°38' W 014°41'515.4
2017-Nov-10 20:28N 26°43' W 014°37'715.5
2017-Nov-10 20:00N 26°49' W 014°33'815.3
2017-Nov-10 19:30N 26°55' W 014°29'815.3
2017-Nov-10 19:00N 27°02' W 014°25'815.4
2017-Nov-10 18:30N 27°09' W 014°20'815.5
2017-Nov-10 18:00N 27°15' W 014°16'815.1
2017-Nov-10 17:30N 27°22' W 014°11'815.1
2017-Nov-10 17:00N 27°28' W 014°07'815.2
2017-Nov-10 16:30N 27°35' W 014°03'815.4
2017-Nov-10 16:00N 27°42' W 013°58'815.3
2017-Nov-10 15:30N 27°48' W 013°54'815.4
2017-Nov-10 15:00N 27°55' W 013°49'815.3
2017-Nov-10 14:29N 28°02' W 013°45'715.5
2017-Nov-10 14:00N 28°08' W 013°42'1015.3
2017-Nov-10 13:20N 28°18' W 013°37'515.3
2017-Nov-10 12:59N 28°23' W 013°34'815.3
2017-Nov-10 12:28N 28°30' W 013°31'815.5
2017-Nov-10 11:59N 28°37' W 013°27'715.4
2017-Nov-10 11:30N 28°43' W 013°23'815.4
2017-Nov-10 11:00N 28°50' W 013°20'815.5
2017-Nov-10 10:30N 28°57' W 013°16'1015.4
2017-Nov-10 09:50N 29°07' W 013°11'815.2
2017-Nov-10 09:20N 29°14' W 013°08'514.8
2017-Nov-10 08:59N 29°18' W 013°04'714.9
2017-Nov-10 08:30N 29°23' W 012°59'815.1
2017-Nov-10 08:00N 29°29' W 012°53'815.2
2017-Nov-10 07:30N 29°35' W 012°47'815.2
2017-Nov-10 07:00N 29°40' W 012°41'815.1
2017-Nov-10 06:30N 29°46' W 012°36'715.1
2017-Nov-10 06:00N 29°51' W 012°30'815.2
2017-Nov-10 05:30N 29°57' W 012°24'1015.5
2017-Nov-10 04:50N 30°05' W 012°16'1015.3
2017-Nov-10 04:09N 30°13' W 012°08'515.0
2017-Nov-10 03:48N 30°16' W 012°04'414.9
2017-Nov-10 03:30N 30°20' W 012°00'1315.3
2017-Nov-10 02:39N 30°30' W 011°50'215.1
2017-Nov-10 02:30N 30°31' W 011°48'1415.4
2017-Nov-10 01:35N 30°42' W 011°37'1715.3
2017-Nov-10 00:28N 30°54' W 011°24'715.4
2017-Nov-09 23:59N 31°00' W 011°19'815.4
2017-Nov-09 23:27N 31°06' W 011°12'41315.2
2017-Nov-08 20:13N 36°00' W 005°25'23014.9
2017-Nov-08 04:46N 37°18' W 000°55'815.9
2017-Nov-08 04:17N 37°23' W 000°48'415.6
2017-Nov-08 04:00N 37°26' W 000°43'815.6
2017-Nov-08 03:29N 37°32' W 000°36'715.6
2017-Nov-08 03:00N 37°38' W 000°30'815.4
2017-Nov-08 02:30N 37°44' W 000°25'1315.2
2017-Nov-08 01:37N 37°55' W 000°16'515.2
2017-Nov-08 01:18N 37°60' W 000°13'10 0.3
2017-Nov-06 21:25N 37°50' W 000°15'715.3
2017-Nov-06 20:58N 37°45' W 000°21'715.7
2017-Nov-06 20:30N 37°39' W 000°26'  

Dump ship's entire track history